Observation data for Brownfield on 02/14/2020      Previous  Date  Next       Current Mesonet Observations  Soil Data  Daily Summary Page  Observations in Plain Language
KBWS 140600Z 12010KT M02/M03 A3027 RMK A01 T10231030  RH  096%=      5-min Rain = 0
KBWS 140605Z 12010KT M02/M03 A3027 RMK A01 T10241031  RH  096%=      5-min Rain = 0
KBWS 140610Z 12009KT M03/M03 A3027 RMK A01 T10251031  RH  096%=      5-min Rain = 0
KBWS 140615Z 13009KT M03/M03 A3027 RMK A01 T10251032  RH  096%=      5-min Rain = 0
KBWS 140620Z 12008KT M03/M03 A3027 RMK A01 T10261032  RH  096%=      5-min Rain = 0
KBWS 140625Z 12007KT M03/M03 A3027 RMK A01 T10261032  RH  096%=      5-min Rain = 0
KBWS 140630Z 12007KT M03/M03 A3027 RMK A01 T10261032  RH  096%=      5-min Rain = 0
KBWS 140635Z 12007KT M03/M03 A3027 RMK A01 T10271033  RH  096%=      5-min Rain = 0
KBWS 140640Z 12007KT M03/M03 A3027 RMK A01 T10281033  RH  097%=      5-min Rain = 0
KBWS 140645Z 13007KT M03/M03 A3028 RMK A01 T10281034  RH  097%=      5-min Rain = 0
KBWS 140650Z 13007KT M03/M03 A3028 RMK A01 T10291034  RH  097%=      5-min Rain = 0
KBWS 140655Z 13008KT M03/M03 A3028 RMK A01 T10291034  RH  097%=      5-min Rain = 0
KBWS 140700Z 13007KT M03/M03 A3028 RMK A01 T10291034  RH  097%=      5-min Rain = 0
KBWS 140705Z 13007KT M03/M03 A3028 RMK A01 T10291034  RH  097%=      5-min Rain = 0
KBWS 140710Z 13007KT M03/M04 A3028 RMK A01 T10301035  RH  097%=      5-min Rain = 0
KBWS 140715Z 13008KT M03/M03 A3028 RMK A01 T10291034  RH  097%=      5-min Rain = 0
KBWS 140720Z 13009KT M03/M03 A3028 RMK A01 T10291034  RH  097%=      5-min Rain = 0
KBWS 140725Z 12008KT M03/M03 A3028 RMK A01 T10291034  RH  097%=      5-min Rain = 0
KBWS 140730Z 13008KT M03/M03 A3028 RMK A01 T10291034  RH  097%=      5-min Rain = 0
KBWS 140735Z 12009KT M03/M04 A3028 RMK A01 T10301035  RH  097%=      5-min Rain = 0
KBWS 140740Z 12008KT M03/M04 A3028 RMK A01 T10301035  RH  097%=      5-min Rain = 0
KBWS 140745Z 13008KT M03/M04 A3028 RMK A01 T10301036  RH  097%=      5-min Rain = 0
KBWS 140750Z 13009KT M03/M04 A3028 RMK A01 T10301035  RH  097%=      5-min Rain = 0
KBWS 140755Z 13009KT M03/M03 A3028 RMK A01 T10291034  RH  097%=      5-min Rain = 0
KBWS 140800Z 13009KT M03/M03 A3028 RMK A01 T10281033  RH  097%=      5-min Rain = 0
KBWS 140805Z 13011KT M03/M03 A3028 RMK A01 T10281033  RH  096%=      5-min Rain = 0
KBWS 140810Z 13011KT M03/M03 A3029 RMK A01 T10271033  RH  096%=      5-min Rain = 0
KBWS 140815Z 13013KT M03/M03 A3029 RMK A01 T10271034  RH  096%=      5-min Rain = 0
KBWS 140820Z 13012KT M03/M03 A3029 RMK A01 T10271034  RH  095%=      5-min Rain = 0
KBWS 140825Z 13011KT M03/M03 A3029 RMK A01 T10261034  RH  095%=      5-min Rain = 0
KBWS 140830Z 13015KT M03/M03 A3029 RMK A01 T10271034  RH  095%=      5-min Rain = 0
KBWS 140835Z 13014KT M03/M03 A3029 RMK A01 T10261034  RH  095%=      5-min Rain = 0
KBWS 140840Z 14014KT M03/M03 A3029 RMK A01 T10261033  RH  096%=      5-min Rain = 0
KBWS 140845Z 14012KT M03/M03 A3029 RMK A01 T10251032  RH  096%=      5-min Rain = 0
KBWS 140850Z 13011KT M02/M03 A3029 RMK A01 T10241031  RH  096%=      5-min Rain = 0
KBWS 140855Z 14013KT M03/M03 A3029 RMK A01 T10251031  RH  096%=      5-min Rain = 0
KBWS 140900Z 13012KT M02/M03 A3029 RMK A01 T10241031  RH  096%=      5-min Rain = 0
KBWS 140905Z 13013KT M02/M03 A3029 RMK A01 T10241030  RH  096%=      5-min Rain = 0
KBWS 140910Z 14012KT M02/M03 A3028 RMK A01 T10231029  RH  096%=      5-min Rain = 0
KBWS 140915Z 13012KT M02/M03 A3028 RMK A01 T10231029  RH  096%=      5-min Rain = 0
KBWS 140920Z 14013KT M02/M03 A3028 RMK A01 T10231029  RH  096%=      5-min Rain = 0
KBWS 140925Z 14014KT M02/M03 A3028 RMK A01 T10231029  RH  096%=      5-min Rain = 0
KBWS 140930Z 14013KT M02/M03 A3029 RMK A01 T10241029  RH  097%=      5-min Rain = 0
KBWS 140935Z 14012G17KT M02/M03 A3029 RMK A01 T10231029  RH  097%=      5-min Rain = 0
KBWS 140940Z 14013KT M02/M03 A3029 RMK A01 T10241029  RH  097%=      5-min Rain = 0
KBWS 140945Z 14011KT M02/M03 A3029 RMK A01 T10241029  RH  097%=      5-min Rain = 0
KBWS 140950Z 14011KT M02/M03 A3029 RMK A01 T10241029  RH  097%=      5-min Rain = 0
KBWS 140955Z 14012KT M02/M03 A3029 RMK A01 T10241029  RH  097%=      5-min Rain = 0
KBWS 141000Z 13012KT M02/M03 A3029 RMK A01 T10241029  RH  097%=      5-min Rain = 0
KBWS 141005Z 14011KT M02/M03 A3028 RMK A01 T10241029  RH  097%=      5-min Rain = 0
KBWS 141010Z 14011KT M02/M03 A3028 RMK A01 T10241029  RH  098%=      5-min Rain = 0
KBWS 141015Z 14012KT M02/M03 A3028 RMK A01 T10241028  RH  098%=      5-min Rain = 0
KBWS 141020Z 14011KT M02/M03 A3028 RMK A01 T10241029  RH  098%=      5-min Rain = 0
KBWS 141025Z 14011KT M02/M03 A3028 RMK A01 T10241028  RH  098%=      5-min Rain = 0
KBWS 141030Z 14012KT M02/M03 A3028 RMK A01 T10241028  RH  098%=      5-min Rain = 0
KBWS 141035Z 14012KT M02/M03 A3028 RMK A01 T10241028  RH  097%=      5-min Rain = 0
KBWS 141040Z 14009KT M02/M03 A3028 RMK A01 T10231028  RH  097%=      5-min Rain = 0
KBWS 141045Z 14010KT M02/M03 A3028 RMK A01 T10231028  RH  097%=      5-min Rain = 0
KBWS 141050Z 14010KT M02/M03 A3028 RMK A01 T10231028  RH  097%=      5-min Rain = 0
KBWS 141055Z 14010KT M02/M03 A3028 RMK A01 T10231028  RH  097%=      5-min Rain = 0
KBWS 141100Z 14009KT M02/M03 A3028 RMK A01 T10221028  RH  097%=      5-min Rain = 0
KBWS 141105Z 14009KT M02/M03 A3028 RMK A01 T10231028  RH  097%=      5-min Rain = 0
KBWS 141110Z 13009KT M02/M03 A3028 RMK A01 T10221028  RH  097%=      5-min Rain = 0
KBWS 141115Z 13010KT M02/M03 A3028 RMK A01 T10231028  RH  096%=      5-min Rain = 0
KBWS 141120Z 14009KT M02/M03 A3028 RMK A01 T10231029  RH  096%=      5-min Rain = 0
KBWS 141125Z 14009KT M02/M03 A3028 RMK A01 T10221028  RH  096%=      5-min Rain = 0
KBWS 141130Z 15011KT M02/M03 A3028 RMK A01 T10221028  RH  096%=      5-min Rain = 0
KBWS 141135Z 14011KT M02/M03 A3028 RMK A01 T10211027  RH  096%=      5-min Rain = 0
KBWS 141140Z 15011G17KT M02/M03 A3028 RMK A01 T10211027  RH  096%=      5-min Rain = 0
KBWS 141145Z 14009KT M02/M03 A3029 RMK A01 T10221028  RH  096%=      5-min Rain = 0
KBWS 141150Z 14008KT M02/M03 A3029 RMK A01 T10221028  RH  096%=      5-min Rain = 0
KBWS 141155Z 14009KT M02/M03 A3029 RMK A01 T10221027  RH  097%=      5-min Rain = 0
KBWS 141200Z 15010KT M02/M03 A3029 RMK A01 T10211027  RH  097%=      5-min Rain = 0
KBWS 141205Z 14009G14KT M02/M03 A3029 RMK A01 T10221027  RH  096%=      5-min Rain = 0
KBWS 141210Z 14008KT M02/M03 A3029 RMK A01 T10221027  RH  097%=      5-min Rain = 0
KBWS 141215Z 15010KT M02/M03 A3029 RMK A01 T10211027  RH  097%=      5-min Rain = 0
KBWS 141220Z 15012KT M02/M03 A3029 RMK A01 T10221027  RH  097%=      5-min Rain = 0
KBWS 141225Z 14011KT M02/M03 A3029 RMK A01 T10211027  RH  097%=      5-min Rain = 0
KBWS 141230Z 15011KT M02/M03 A3029 RMK A01 T10221027  RH  096%=      5-min Rain = 0
KBWS 141235Z 16011KT M02/M03 A3029 RMK A01 T10211027  RH  097%=      5-min Rain = 0
KBWS 141240Z 15013KT M02/M03 A3029 RMK A01 T10221027  RH  097%=      5-min Rain = 0
KBWS 141245Z 15012KT M02/M03 A3029 RMK A01 T10231028  RH  097%=      5-min Rain = 0
KBWS 141250Z 15013KT M02/M03 A3029 RMK A01 T10221028  RH  097%=      5-min Rain = 0
KBWS 141255Z 15012G17KT M02/M03 A3029 RMK A01 T10221027  RH  097%=      5-min Rain = 0
KBWS 141300Z 15013KT M02/M03 A303 RMK A01 T10221028  RH  097%=      5-min Rain = 0
KBWS 141305Z 15012KT M02/M03 A303 RMK A01 T10231028  RH  097%=      5-min Rain = 0
KBWS 141310Z 16012KT M02/M03 A303 RMK A01 T10231028  RH  097%=      5-min Rain = 0
KBWS 141315Z 15011KT M02/M03 A303 RMK A01 T10231028  RH  097%=      5-min Rain = 0
KBWS 141320Z 15012KT M02/M03 A303 RMK A01 T10241028  RH  097%=      5-min Rain = 0
KBWS 141325Z 15011KT M02/M03 A303 RMK A01 T10241028  RH  098%=      5-min Rain = 0
KBWS 141330Z 15011KT M02/M03 A303 RMK A01 T10241028  RH  098%=      5-min Rain = 0
KBWS 141335Z 15012KT M02/M03 A303 RMK A01 T10241028  RH  098%=      5-min Rain = 0
KBWS 141340Z 15012KT M02/M03 A303 RMK A01 T10241028  RH  098%=      5-min Rain = 0
KBWS 141345Z 14011KT M02/M03 A303 RMK A01 T10241028  RH  098%=      5-min Rain = 0
KBWS 141350Z 15012KT M02/M03 A303 RMK A01 T10241028  RH  098%=      5-min Rain = 0
KBWS 141355Z 15011KT M02/M03 A303 RMK A01 T10241028  RH  098%=      5-min Rain = 0
KBWS 141400Z 15010KT M02/M03 A303 RMK A01 T10241028  RH  098%=      5-min Rain = 0
KBWS 141405Z 14011KT M02/M03 A303 RMK A01 T10241027  RH  098%=      5-min Rain = 0
KBWS 141410Z 14010KT M02/M03 A303 RMK A01 T10241027  RH  099%=      5-min Rain = 0
KBWS 141415Z 14010KT M02/M03 A303 RMK A01 T10231026  RH  099%=      5-min Rain = 0
KBWS 141420Z 14010KT M02/M03 A303 RMK A01 T10231026  RH  099%=      5-min Rain = 0
KBWS 141425Z 15010KT M02/M03 A303 RMK A01 T10231026  RH  099%=      5-min Rain = 0
KBWS 141430Z 14010KT M02/M03 A303 RMK A01 T10231026  RH  099%=      5-min Rain = 0
KBWS 141435Z 15010KT M02/M03 A303 RMK A01 T10231025  RH  099%=      5-min Rain = 0
KBWS 141440Z 15010KT M02/M03 A303 RMK A01 T10221025  RH  099%=      5-min Rain = 0
KBWS 141445Z 14009KT M02/M02 A303 RMK A01 T10221024  RH  099%=      5-min Rain = 0
KBWS 141450Z 14010KT M02/M03 A303 RMK A01 T10221025  RH  099%=      5-min Rain = 0
KBWS 141455Z 14009KT M02/M02 A303 RMK A01 T10221024  RH  099%=      5-min Rain = 0
KBWS 141500Z 14009KT M02/M02 A303 RMK A01 T10211024  RH  099%=      5-min Rain = 0
KBWS 141505Z 14009KT M02/M02 A303 RMK A01 T10211023  RH  099%=      5-min Rain = 0
KBWS 141510Z 14010KT M02/M02 A303 RMK A01 T10211023  RH  099%=      5-min Rain = 0
KBWS 141515Z 14010KT M02/M02 A303 RMK A01 T10211023  RH  099%=      5-min Rain = 0
KBWS 141520Z 14010KT M02/M02 A303 RMK A01 T10201022  RH  099%=      5-min Rain = 0
KBWS 141525Z 14009KT M02/M02 A303 RMK A01 T10201022  RH  099%=      5-min Rain = 0
KBWS 141530Z 14010KT M02/M02 A303 RMK A01 T10191021  RH  099%=      5-min Rain = 0
KBWS 141535Z 14010KT M02/M02 A303 RMK A01 T10181020  RH  099%=      5-min Rain = 0
KBWS 141540Z 14009KT M02/M02 A303 RMK A01 T10181020  RH  099%=      5-min Rain = 0
KBWS 141545Z 14009KT M02/M02 A303 RMK A01 T10171020  RH  099%=      5-min Rain = 0
KBWS 141550Z 14009KT M02/M02 A303 RMK A01 T10161019  RH  099%=      5-min Rain = 0
KBWS 141555Z 14009KT M02/M02 A3031 RMK A01 T10161018  RH  099%=      5-min Rain = 0
KBWS 141600Z 15009KT M02/M02 A3031 RMK A01 T10161018  RH  099%=      5-min Rain = 0
KBWS 141605Z 15008KT M02/M02 A3031 RMK A01 T10151017  RH  099%=      5-min Rain = 0
KBWS 141610Z 16008KT M02/M02 A3031 RMK A01 T10151017  RH  099%=      5-min Rain = 0
KBWS 141615Z 15009KT M01/M02 A303 RMK A01 T10131015  RH  099%=      5-min Rain = 0
KBWS 141620Z 15010KT M01/M02 A303 RMK A01 T10141016  RH  099%=      5-min Rain = 0
KBWS 141625Z 16009KT M01/M02 A303 RMK A01 T10131015  RH  099%=      5-min Rain = 0
KBWS 141630Z 15008KT M01/M02 A303 RMK A01 T10131015  RH  099%=      5-min Rain = 0
KBWS 141635Z 14008KT M01/M01 A303 RMK A01 T10111013  RH  099%=      5-min Rain = 0
KBWS 141640Z 15009KT M01/M01 A303 RMK A01 T10101012  RH  099%=      5-min Rain = 0
KBWS 141645Z 16009KT M01/M01 A303 RMK A01 T10101012  RH  099%=      5-min Rain = 0
KBWS 141650Z 16010KT M01/M01 A303 RMK A01 T10111013  RH  099%=      5-min Rain = 0
KBWS 141655Z 16008KT M01/M01 A303 RMK A01 T10101012  RH  100%=      5-min Rain = 0
KBWS 141700Z 17010KT M01/M01 A303 RMK A01 T10091011  RH  100%=      5-min Rain = 0
KBWS 141705Z 17010KT M01/M01 A303 RMK A01 T10091011  RH  100%=      5-min Rain = 0
KBWS 141710Z 17010KT M01/M01 A3029 RMK A01 T10081010  RH  100%=      5-min Rain = 0
KBWS 141715Z 17011KT M01/M01 A3029 RMK A01 T10081010  RH  100%=      5-min Rain = 0
KBWS 141720Z 16011KT M01/M01 A3029 RMK A01 T10071009  RH  100%=      5-min Rain = 0
KBWS 141725Z 15009KT M01/M01 A3029 RMK A01 T10081010  RH  100%=      5-min Rain = 0
KBWS 141730Z 16009KT M01/M01 A3029 RMK A01 T10071009  RH  100%=      5-min Rain = 0
KBWS 141735Z 16010KT M01/M01 A3029 RMK A01 T10081010  RH  100%=      5-min Rain = 0
KBWS 141740Z 16010KT M01/M01 A3029 RMK A01 T10071009  RH  100%=      5-min Rain = 0
KBWS 141745Z 16010KT M01/M01 A3029 RMK A01 T10081010  RH  100%=      5-min Rain = 0
KBWS 141750Z 16009KT M01/M01 A3029 RMK A01 T10081010  RH  100%=      5-min Rain = 0
KBWS 141755Z 18011KT M01/M01 A3029 RMK A01 T10071009  RH  100%=      5-min Rain = 0
KBWS 141800Z 18010KT M01/M01 A3029 RMK A01 T10071009  RH  100%=      5-min Rain = 0
KBWS 141805Z 17010KT M01/M01 A3029 RMK A01 T10061008  RH  100%=      5-min Rain = 0
KBWS 141810Z 17010KT M01/M01 A3029 RMK A01 T10061008  RH  100%=      5-min Rain = 0
KBWS 141815Z 18010KT M01/M01 A3029 RMK A01 T10061008  RH  100%=      5-min Rain = 0
KBWS 141820Z 17010KT M01/M01 A3029 RMK A01 T10051007  RH  100%=      5-min Rain = 0
KBWS 141825Z 17010KT M00/M01 A3028 RMK A01 T10041006  RH  100%=      5-min Rain = 0
KBWS 141830Z 18009KT M00/M00 A3028 RMK A01 T10021004  RH  099%=      5-min Rain = 0
KBWS 141835Z 18009KT M00/M00 A3027 RMK A01 T10011003  RH  099%=      5-min Rain = 0
KBWS 141840Z 16009KT M00/M00 A3027 RMK A01 T10011003  RH  099%=      5-min Rain = 0
KBWS 141845Z 17009KT M00/M01 A3027 RMK A01 T10021005  RH  099%=      5-min Rain = 0
KBWS 141850Z 17009KT M00/M00 A3026 RMK A01 T10011003  RH  099%=      5-min Rain = 0
KBWS 141855Z 17010KT 00/00 A3026 RMK A01 T000000-2  RH  099%=      5-min Rain = 0
KBWS 141900Z 17010KT 00/00 A3026 RMK A01 T00-000-3  RH  099%=      5-min Rain = 0
KBWS 141905Z 17010KT 00/M00 A3026 RMK A01 T00011002  RH  099%=      5-min Rain = 0
KBWS 141910Z 17011KT 00/M00 A3026 RMK A01 T00011002  RH  099%=      5-min Rain = 0
KBWS 141915Z 18010KT 00/M00 A3026 RMK A01 T00021002  RH  099%=      5-min Rain = 0
KBWS 141920Z 18011KT 00/00 A3026 RMK A01 T000400-0  RH  098%=      5-min Rain = 0
KBWS 141925Z 18010KT 00/M00 A3025 RMK A01 T00041001  RH  098%=      5-min Rain = 0
KBWS 141930Z 17011KT 01/00 A3025 RMK A01 T000500-0  RH  097%=      5-min Rain = 0
KBWS 141935Z 18010KT 01/M00 A3025 RMK A01 T00051001  RH  097%=      5-min Rain = 0
KBWS 141940Z 17012KT 01/M00 A3024 RMK A01 T00051002  RH  097%=      5-min Rain = 0
KBWS 141945Z 18010KT 01/M00 A3024 RMK A01 T00051002  RH  096%=      5-min Rain = 0
KBWS 141950Z 19009KT 01/00 A3024 RMK A01 T00080000  RH  096%=      5-min Rain = 0
KBWS 141955Z 18010KT 01/00 A3023 RMK A01 T00100001  RH  095%=      5-min Rain = 0
KBWS 142000Z 17010KT 01/M00 A3023 RMK A01 T00081002  RH  095%=      5-min Rain = 0
KBWS 142005Z 18009KT 01/M00 A3023 RMK A01 T00081001  RH  095%=      5-min Rain = 0
KBWS 142010Z 19009KT 01/00 A3023 RMK A01 T00100000  RH  095%=      5-min Rain = 0
KBWS 142015Z 19009KT 01/00 A3022 RMK A01 T00120001  RH  094%=      5-min Rain = 0
KBWS 142020Z 18010KT 01/00 A3022 RMK A01 T001200-0  RH  093%=      5-min Rain = 0
KBWS 142025Z 17010KT 01/00 A3022 RMK A01 T00130000  RH  092%=      5-min Rain = 0
KBWS 142030Z 16011KT 01/M00 A3021 RMK A01 T00121001  RH  092%=      5-min Rain = 0
KBWS 142035Z 17011KT 01/00 A3021 RMK A01 T00140000  RH  092%=      5-min Rain = 0
KBWS 142040Z 17011G16KT 02/00 A302 RMK A01 T00170002  RH  091%=      5-min Rain = 0
KBWS 142045Z 17012KT 02/00 A302 RMK A01 T00180001  RH  089%=      5-min Rain = 0
KBWS 142050Z 18012KT 02/M00 A302 RMK A01 T00171001  RH  089%=      5-min Rain = 0
KBWS 142055Z 18012KT 02/M00 A3019 RMK A01 T00181001  RH  088%=      5-min Rain = 0
KBWS 142100Z 18011KT 02/00 A3019 RMK A01 T00210001  RH  088%=      5-min Rain = 0
KBWS 142105Z 17012KT 02/00 A3019 RMK A01 T00220001  RH  087%=      5-min Rain = 0
KBWS 142110Z 17011KT 02/00 A3019 RMK A01 T00220000  RH  087%=      5-min Rain = 0
KBWS 142115Z 17012KT 02/00 A3019 RMK A01 T00230001  RH  087%=      5-min Rain = 0
KBWS 142120Z 16011KT 02/00 A3019 RMK A01 T00220001  RH  087%=      5-min Rain = 0
KBWS 142125Z 17012KT 02/00 A3019 RMK A01 T00220000  RH  087%=      5-min Rain = 0
KBWS 142130Z 17012KT 02/00 A3019 RMK A01 T002100-0  RH  087%=      5-min Rain = 0
KBWS 142135Z 18010G15KT 02/00 A3018 RMK A01 T00230002  RH  087%=      5-min Rain = 0
KBWS 142140Z 18011KT 02/00 A3018 RMK A01 T00240001  RH  086%=      5-min Rain = 0
KBWS 142145Z 17011KT 02/00 A3018 RMK A01 T00240001  RH  086%=      5-min Rain = 0
KBWS 142150Z 18011KT 03/00 A3018 RMK A01 T00260002  RH  085%=      5-min Rain = 0
KBWS 142155Z 16011KT 03/00 A3018 RMK A01 T00260002  RH  085%=      5-min Rain = 0
KBWS 142200Z 17011KT 03/00 A3017 RMK A01 T00250001  RH  086%=      5-min Rain = 0
KBWS 142205Z 17012KT 02/00 A3017 RMK A01 T00240001  RH  086%=      5-min Rain = 0
KBWS 142210Z 17012KT 03/00 A3017 RMK A01 T00260003  RH  085%=      5-min Rain = 0
KBWS 142215Z 16011KT 03/00 A3017 RMK A01 T00270003  RH  085%=      5-min Rain = 0
KBWS 142220Z 16011KT 03/00 A3017 RMK A01 T00260002  RH  086%=      5-min Rain = 0
KBWS 142225Z 16012KT 03/00 A3017 RMK A01 T00250003  RH  086%=      5-min Rain = 0
KBWS 142230Z 17013KT 02/00 A3017 RMK A01 T00240002  RH  086%=      5-min Rain = 0
KBWS 142235Z 17011KT 03/00 A3017 RMK A01 T00260004  RH  086%=      5-min Rain = 0
KBWS 142240Z 16013KT 03/00 A3016 RMK A01 T00270003  RH  085%=      5-min Rain = 0
KBWS 142245Z 15012KT 03/00 A3016 RMK A01 T00260003  RH  086%=      5-min Rain = 0
KBWS 142250Z 15012KT 03/00 A3016 RMK A01 T00250004  RH  087%=      5-min Rain = 0
KBWS 142255Z 16012KT 03/00 A3016 RMK A01 T00250004  RH  087%=      5-min Rain = 0
KBWS 142300Z 16013KT 02/00 A3016 RMK A01 T00240003  RH  087%=      5-min Rain = 0
KBWS 142305Z 16012KT 02/00 A3016 RMK A01 T00240003  RH  087%=      5-min Rain = 0
KBWS 142310Z 15013KT 02/00 A3016 RMK A01 T00240003  RH  087%=      5-min Rain = 0
KBWS 142315Z 16014KT 02/00 A3016 RMK A01 T00240003  RH  087%=      5-min Rain = 0
KBWS 142320Z 16012KT 02/00 A3016 RMK A01 T00240003  RH  087%=      5-min Rain = 0
KBWS 142325Z 16012KT 03/00 A3016 RMK A01 T00250004  RH  087%=      5-min Rain = 0
KBWS 142330Z 15011KT 03/01 A3016 RMK A01 T00260005  RH  087%=      5-min Rain = 0
KBWS 142335Z 16012KT 03/01 A3016 RMK A01 T00270005  RH  087%=      5-min Rain = 0
KBWS 142340Z 16013KT 03/01 A3016 RMK A01 T00280006  RH  086%=      5-min Rain = 0
KBWS 142345Z 16015KT 03/01 A3015 RMK A01 T00290005  RH  086%=      5-min Rain = 0
KBWS 142350Z 16013KT 03/01 A3015 RMK A01 T00300005  RH  085%=      5-min Rain = 0
KBWS 142355Z 16013KT 03/01 A3015 RMK A01 T00300006  RH  085%=      5-min Rain = 0
KBWS 150000Z 16012KT 03/01 A3015 RMK A01 T00300006  RH  085%=      5-min Rain = 0
KBWS 150005Z 16012KT 03/01 A3015 RMK A01 T00310006  RH  085%=      5-min Rain = 0
KBWS 150010Z 16012KT 03/01 A3015 RMK A01 T00310006  RH  084%=      5-min Rain = 0
KBWS 150015Z 16011KT 03/01 A3015 RMK A01 T00300005  RH  085%=      5-min Rain = 0
KBWS 150020Z 17009KT 03/00 A3015 RMK A01 T00280004  RH  086%=      5-min Rain = 0
KBWS 150025Z 17008KT 03/00 A3015 RMK A01 T00250003  RH  086%=      5-min Rain = 0
KBWS 150030Z 17007KT 02/00 A3015 RMK A01 T00230002  RH  087%=      5-min Rain = 0
KBWS 150035Z 17006KT 02/00 A3015 RMK A01 T00210001  RH  088%=      5-min Rain = 0
KBWS 150040Z 16006KT 02/M00 A3015 RMK A01 T00181001  RH  088%=      5-min Rain = 0
KBWS 150045Z 16005KT 02/M00 A3015 RMK A01 T00151003  RH  089%=      5-min Rain = 0
KBWS 150050Z 17005KT 01/M00 A3015 RMK A01 T00131004  RH  090%=      5-min Rain = 0
KBWS 150055Z 16005KT 01/M01 A3014 RMK A01 T00101006  RH  090%=      5-min Rain = 0
KBWS 150100Z 15005KT 01/M01 A3014 RMK A01 T00071008  RH  090%=      5-min Rain = 0
KBWS 150105Z 15005KT 00/M01 A3014 RMK A01 T00041011  RH  091%=      5-min Rain = 0
KBWS 150110Z 16006KT 00/M01 A3014 RMK A01 T00021011  RH  092%=      5-min Rain = 0
KBWS 150115Z 16006KT 00/M01 A3014 RMK A01 T00011012  RH  092%=      5-min Rain = 0
KBWS 150120Z 17006KT M00/M01 A3014 RMK A01 T10011013  RH  092%=      5-min Rain = 0
KBWS 150125Z 18006KT 00/M01 A3014 RMK A01 T00021009  RH  093%=      5-min Rain = 0
KBWS 150130Z 17006KT 00/M01 A3014 RMK A01 T00011011  RH  093%=      5-min Rain = 0
KBWS 150135Z 17006KT M00/M01 A3014 RMK A01 T10021013  RH  093%=      5-min Rain = 0
KBWS 150140Z 17005KT M00/M01 A3014 RMK A01 T10031013  RH  093%=      5-min Rain = 0
KBWS 150145Z 17005KT M00/M01 A3015 RMK A01 T10011011  RH  094%=      5-min Rain = 0
KBWS 150150Z 17005KT 00/M01 A3014 RMK A01 T00031007  RH  094%=      5-min Rain = 0
KBWS 150155Z 17005KT 01/M01 A3014 RMK A01 T00051005  RH  094%=      5-min Rain = 0
KBWS 150200Z 17006KT 00/M01 A3014 RMK A01 T00031008  RH  093%=      5-min Rain = 0
KBWS 150205Z 17007KT M00/M01 A3014 RMK A01 T10011013  RH  093%=      5-min Rain = 0
KBWS 150210Z 17007KT M00/M01 A3014 RMK A01 T10031014  RH  093%=      5-min Rain = 0
KBWS 150215Z 17008KT M00/M01 A3014 RMK A01 T10011011  RH  094%=      5-min Rain = 0
KBWS 150220Z 17009KT 00/M01 A3014 RMK A01 T00011008  RH  094%=      5-min Rain = 0
KBWS 150225Z 17008KT 00/M01 A3015 RMK A01 T00011009  RH  094%=      5-min Rain = 0
KBWS 150230Z 17006KT 00/M01 A3015 RMK A01 T00021008  RH  094%=      5-min Rain = 0
KBWS 150235Z 16004KT 00/M01 A3016 RMK A01 T00021008  RH  094%=      5-min Rain = 0
KBWS 150240Z 12003KT 00/M01 A3016 RMK A01 T00011008  RH  094%=      5-min Rain = 0
KBWS 150245Z 07003KT 00/M01 A3016 RMK A01 T00011009  RH  094%=      5-min Rain = 0
KBWS 150250Z 11002KT M00/M01 A3016 RMK A01 T10011011  RH  094%=      5-min Rain = 0
KBWS 150255Z 13002KT 00/M01 A3016 RMK A01 T00021007  RH  095%=      5-min Rain = 0
KBWS 150300Z 14002KT 00/M00 A3016 RMK A01 T00041004  RH  095%=      5-min Rain = 0
KBWS 150305Z 17003KT 01/M00 A3016 RMK A01 T00071002  RH  095%=      5-min Rain = 0
KBWS 150310Z 17003KT 01/00 A3016 RMK A01 T00100001  RH  095%=      5-min Rain = 0
KBWS 150315Z 17003KT 01/M00 A3016 RMK A01 T00081002  RH  094%=      5-min Rain = 0
KBWS 150320Z 17003KT 01/M00 A3016 RMK A01 T00081002  RH  094%=      5-min Rain = 0
KBWS 150325Z 17003KT 01/00 A3016 RMK A01 T001000-0  RH  094%=      5-min Rain = 0
KBWS 150330Z 18003KT 01/M00 A3016 RMK A01 T00091002  RH  093%=      5-min Rain = 0
KBWS 150335Z 18003KT 01/M00 A3016 RMK A01 T00091002  RH  094%=      5-min Rain = 0
KBWS 150340Z 17003KT 01/M00 A3016 RMK A01 T00091002  RH  094%=      5-min Rain = 0
KBWS 150345Z 16004KT 01/M01 A3016 RMK A01 T00061005  RH  093%=      5-min Rain = 0
KBWS 150350Z 16006KT 00/M01 A3015 RMK A01 T00011010  RH  093%=      5-min Rain = 0
KBWS 150355Z 17007KT M00/M02 A3015 RMK A01 T10041015  RH  093%=      5-min Rain = 0
KBWS 150400Z 17008KT M00/M01 A3015 RMK A01 T10041013  RH  094%=      5-min Rain = 0
KBWS 150405Z 17008KT M01/M02 A3015 RMK A01 T10061015  RH  094%=      5-min Rain = 0
KBWS 150410Z 17009KT M01/M02 A3015 RMK A01 T10071016  RH  095%=      5-min Rain = 0
KBWS 150415Z 17009KT M00/M01 A3015 RMK A01 T10021010  RH  096%=      5-min Rain = 0
KBWS 150420Z 17009KT 00/M01 A3014 RMK A01 T00011007  RH  096%=      5-min Rain = 0
KBWS 150425Z 17008KT 01/M00 A3014 RMK A01 T00051003  RH  096%=      5-min Rain = 0
KBWS 150430Z 18008KT 01/M00 A3014 RMK A01 T00051004  RH  095%=      5-min Rain = 0
KBWS 150435Z 18008KT 01/M00 A3014 RMK A01 T00061002  RH  095%=      5-min Rain = 0
KBWS 150440Z 18008KT 01/00 A3015 RMK A01 T00100002  RH  095%=      5-min Rain = 0
KBWS 150445Z 19008KT 01/01 A3015 RMK A01 T00140005  RH  095%=      5-min Rain = 0
KBWS 150450Z 19009KT 02/01 A3015 RMK A01 T00160006  RH  095%=      5-min Rain = 0
KBWS 150455Z 19010KT 02/01 A3015 RMK A01 T00170007  RH  094%=      5-min Rain = 0
KBWS 150500Z 19010KT 02/01 A3014 RMK A01 T00180007  RH  094%=      5-min Rain = 0
KBWS 150505Z 19011KT 02/01 A3014 RMK A01 T00180007  RH  094%=      5-min Rain = 0
KBWS 150510Z 19011KT 02/01 A3014 RMK A01 T00190008  RH  094%=      5-min Rain = 0
KBWS 150515Z 19011KT 02/01 A3014 RMK A01 T00210009  RH  093%=      5-min Rain = 0
KBWS 150520Z 19011KT 02/01 A3014 RMK A01 T00210009  RH  093%=      5-min Rain = 0
KBWS 150525Z 19011KT 02/01 A3014 RMK A01 T00200008  RH  093%=      5-min Rain = 0
KBWS 150530Z 19010KT 02/01 A3014 RMK A01 T00190007  RH  093%=      5-min Rain = 0
KBWS 150535Z 19010KT 02/01 A3014 RMK A01 T00180007  RH  094%=      5-min Rain = 0
KBWS 150540Z 19010KT 02/01 A3013 RMK A01 T00190008  RH  094%=      5-min Rain = 0
KBWS 150545Z 19010KT 02/01 A3013 RMK A01 T00190008  RH  094%=      5-min Rain = 0
KBWS 150550Z 19010KT 02/01 A3013 RMK A01 T00180007  RH  094%=      5-min Rain = 0
KBWS 150555Z 19010KT 02/01 A3013 RMK A01 T00180008  RH  094%=      5-min Rain = 0

Page generated in 0.0329 seconds.